createdAt,value
2023-02-11T00:00:31.825Z,10.40
2023-02-11T00:03:01.353Z,10.93
2023-02-11T00:05:28.675Z,12.65
2023-02-11T00:07:57.817Z,12.55
2023-02-11T00:10:24.634Z,11.95
2023-02-11T00:12:56.631Z,10.73
2023-02-11T00:15:23.590Z,10.98
2023-02-11T00:17:50.391Z,9.70
2023-02-11T00:20:17.243Z,11.07
2023-02-11T00:22:46.971Z,9.52
2023-02-11T00:25:16.614Z,10.80
2023-02-11T00:27:43.418Z,10.05
2023-02-11T00:30:12.802Z,10.35
2023-02-11T00:32:39.634Z,10.55
2023-02-11T00:35:06.667Z,10.45
2023-02-11T00:37:36.497Z,9.98
2023-02-11T00:40:06.748Z,7.70
2023-02-11T00:42:35.701Z,10.00
2023-02-11T00:45:02.591Z,8.82
2023-02-11T00:47:29.872Z,10.20
2023-02-11T00:49:56.822Z,8.55
2023-02-11T00:52:23.662Z,8.05
2023-02-11T00:54:50.500Z,9.63
2023-02-11T00:57:17.254Z,8.95
2023-02-11T00:59:44.138Z,10.73
2023-02-11T01:02:10.957Z,8.25
2023-02-11T01:04:37.704Z,7.90
2023-02-11T01:07:04.512Z,7.63
2023-02-11T01:09:31.305Z,9.60
2023-02-11T01:11:58.106Z,7.50
2023-02-11T01:14:24.907Z,9.55
2023-02-11T01:16:51.723Z,8.68
2023-02-11T01:19:18.567Z,8.10
2023-02-11T01:21:45.347Z,9.20
2023-02-11T01:24:12.182Z,9.73
2023-02-11T01:26:38.989Z,8.45
2023-02-11T01:29:05.911Z,8.20
2023-02-11T01:31:32.967Z,8.63
2023-02-11T01:33:59.819Z,8.32
2023-02-11T01:36:26.578Z,9.30
2023-02-11T01:38:53.349Z,8.65
2023-02-11T01:41:20.319Z,7.28
2023-02-11T01:43:49.149Z,7.10
2023-02-11T01:46:25.168Z,8.93
2023-02-11T01:48:55.738Z,7.35
2023-02-11T01:51:24.904Z,7.30
2023-02-11T01:54:10.990Z,8.15
2023-02-11T01:56:58.060Z,7.30
2023-02-11T01:59:29.120Z,7.25
2023-02-11T02:01:59.038Z,7.50
2023-02-11T02:04:31.290Z,7.40
2023-02-11T02:07:02.774Z,7.68
2023-02-11T02:09:31.120Z,6.72
2023-02-11T02:11:57.957Z,6.28
2023-02-11T02:14:24.739Z,7.72
2023-02-11T02:16:51.509Z,7.60
2023-02-11T02:19:37.053Z,8.23
2023-02-11T02:22:22.756Z,7.28
2023-02-11T02:24:52.913Z,9.25
2023-02-11T02:27:38.440Z,5.85
2023-02-11T02:30:20.395Z,8.10
2023-02-11T02:33:21.843Z,5.95
2023-02-11T02:36:08.213Z,6.90
2023-02-11T02:38:41.852Z,5.20
2023-02-11T02:41:11.108Z,6.82
2023-02-11T02:43:44.385Z,8.48
2023-02-11T02:46:20.851Z,5.88
2023-02-11T02:48:52.864Z,7.32
2023-02-11T02:51:38.413Z,7.63
2023-02-11T02:54:23.863Z,7.50
2023-02-11T02:57:03.073Z,8.38
2023-02-11T02:59:39.258Z,9.15
2023-02-11T03:02:17.456Z,8.23
2023-02-11T03:04:47.367Z,7.53
2023-02-11T03:07:20.976Z,9.30
2023-02-11T03:10:00.110Z,8.02
2023-02-11T03:12:28.984Z,6.55
2023-02-11T03:14:55.760Z,7.65
2023-02-11T03:17:23.627Z,6.57
2023-02-11T03:19:50.737Z,8.18
2023-02-11T03:22:20.083Z,7.97
2023-02-11T03:24:47.039Z,6.15
2023-02-11T03:27:20.950Z,8.43
2023-02-11T03:29:59.922Z,7.80
2023-02-11T03:32:35.601Z,6.25
2023-02-11T03:35:10.124Z,7.07
2023-02-11T03:37:40.251Z,7.20
2023-02-11T03:40:10.257Z,8.57
2023-02-11T03:42:40.243Z,7.93
2023-02-11T03:45:09.327Z,8.70
2023-02-11T03:47:38.817Z,8.95
2023-02-11T03:50:07.739Z,7.53
2023-02-11T03:52:36.621Z,7.68
2023-02-11T03:55:05.971Z,7.93
2023-02-11T03:57:34.703Z,8.43
2023-02-11T04:00:04.401Z,7.32
2023-02-11T04:02:32.818Z,7.63
2023-02-11T04:04:59.588Z,6.45
2023-02-11T04:07:26.796Z,6.55
2023-02-11T04:09:54.018Z,8.10
2023-02-11T04:12:20.802Z,8.68
2023-02-11T04:14:47.668Z,7.80
2023-02-11T04:17:14.502Z,7.93
2023-02-11T04:19:41.279Z,10.10
2023-02-11T04:22:08.355Z,9.35
2023-02-11T04:24:35.236Z,8.45
2023-02-11T04:27:02.212Z,7.82
2023-02-11T04:29:29.057Z,6.97
2023-02-11T04:31:56.206Z,9.32
2023-02-11T04:34:24.553Z,7.30
2023-02-11T04:36:51.374Z,7.65
2023-02-11T04:39:18.215Z,8.25
2023-02-11T04:41:45.270Z,6.82
2023-02-11T04:44:12.113Z,7.10
2023-02-11T04:46:38.912Z,6.88
2023-02-11T04:49:05.969Z,8.95
2023-02-11T04:51:32.956Z,6.82
2023-02-11T04:53:59.773Z,10.27
2023-02-11T04:56:26.648Z,6.72
2023-02-11T04:58:53.425Z,7.70
2023-02-11T05:01:20.309Z,9.25
2023-02-11T05:03:47.304Z,7.85
2023-02-11T05:06:14.269Z,7.25
2023-02-11T05:08:41.281Z,9.63
2023-02-11T05:11:08.705Z,7.88
2023-02-11T05:13:35.591Z,8.02
2023-02-11T05:16:02.417Z,7.70
2023-02-11T05:18:29.280Z,8.30
2023-02-11T05:20:56.140Z,8.90
2023-02-11T05:23:22.928Z,8.77
2023-02-11T05:25:50.149Z,6.22
2023-02-11T05:28:17.265Z,9.38
2023-02-11T05:30:44.145Z,7.18
2023-02-11T05:33:11.053Z,6.25
2023-02-11T05:35:37.938Z,7.25
2023-02-11T05:38:04.888Z,8.45
2023-02-11T05:40:31.757Z,7.35
2023-02-11T05:42:58.598Z,4.93
2023-02-11T05:45:25.378Z,6.32
2023-02-11T05:47:52.154Z,6.18
2023-02-11T05:50:19.115Z,6.55
2023-02-11T05:52:45.905Z,6.18
2023-02-11T05:55:12.886Z,7.78
2023-02-11T05:57:39.756Z,5.78
2023-02-11T06:00:06.803Z,6.90
2023-02-11T06:02:33.967Z,5.43
2023-02-11T06:05:00.825Z,5.78
2023-02-11T06:07:27.662Z,6.43
2023-02-11T06:09:54.522Z,4.88
2023-02-11T06:12:21.372Z,7.15
2023-02-11T06:14:48.218Z,6.65
2023-02-11T06:17:15.770Z,5.30
2023-02-11T06:19:42.812Z,6.45
2023-02-11T06:22:09.739Z,7.57
2023-02-11T06:24:58.492Z,6.28
2023-02-11T06:27:24.143Z,5.32
2023-02-11T06:29:52.506Z,5.82
2023-02-11T06:32:39.547Z,5.80
2023-02-11T06:35:06.616Z,6.22
2023-02-11T06:37:34.324Z,5.80
2023-02-11T06:40:01.238Z,6.97
2023-02-11T06:42:28.021Z,8.32
2023-02-11T06:44:54.811Z,6.00
2023-02-11T06:47:21.645Z,7.43
2023-02-11T06:49:48.601Z,6.00
2023-02-11T06:52:15.391Z,5.53
2023-02-11T06:54:42.225Z,6.90
2023-02-11T06:57:09.020Z,3.88
2023-02-11T06:59:35.969Z,8.35
2023-02-11T07:02:02.957Z,6.15
2023-02-11T07:04:29.816Z,3.70
2023-02-11T07:06:56.620Z,4.05
2023-02-11T07:09:23.398Z,4.72
2023-02-11T07:11:50.233Z,3.60
2023-02-11T07:14:17.061Z,4.45
2023-02-11T07:16:43.862Z,4.55
2023-02-11T07:19:10.743Z,4.35
2023-02-11T07:21:37.607Z,6.45
2023-02-11T07:24:10.753Z,3.88
2023-02-11T07:26:37.893Z,5.45
2023-02-11T07:29:04.670Z,5.75
2023-02-11T07:31:31.839Z,6.05
2023-02-11T07:34:00.055Z,4.00
2023-02-11T07:36:27.848Z,4.55
2023-02-11T07:38:54.685Z,7.22
2023-02-11T07:41:23.251Z,4.35
2023-02-11T07:43:53.879Z,4.65
2023-02-11T07:46:25.687Z,3.42
2023-02-11T07:48:57.375Z,3.35
2023-02-11T07:51:26.115Z,7.10
2023-02-11T07:53:56.338Z,4.10
2023-02-11T07:56:26.015Z,3.88
2023-02-11T07:58:58.162Z,4.75
2023-02-11T08:01:30.820Z,3.63
2023-02-11T08:04:02.322Z,5.35
2023-02-11T08:06:33.153Z,4.15
2023-02-11T08:09:09.177Z,3.95
2023-02-11T08:11:39.302Z,3.92
2023-02-11T08:14:08.625Z,4.55
2023-02-11T08:16:39.381Z,2.58
2023-02-11T08:19:08.129Z,3.65
2023-02-11T08:21:37.317Z,4.63
2023-02-11T08:24:06.542Z,2.03
2023-02-11T08:26:39.549Z,3.67
2023-02-11T08:29:14.306Z,3.33
2023-02-11T08:31:42.703Z,4.18
2023-02-11T08:34:14.313Z,3.72
2023-02-11T08:39:19.791Z,3.08
2023-02-11T08:41:50.953Z,2.95
2023-02-11T08:44:22.659Z,2.40
2023-02-11T08:49:16.410Z,3.58
2023-02-11T08:51:43.729Z,2.40
2023-02-11T08:54:10.568Z,2.50
2023-02-11T08:56:40.736Z,2.35
2023-02-11T08:59:09.349Z,2.85
2023-02-11T09:01:36.739Z,2.88
2023-02-11T09:04:05.946Z,3.90
2023-02-11T09:06:32.965Z,2.08
2023-02-11T09:08:59.874Z,2.92
2023-02-11T09:11:28.673Z,3.15
2023-02-11T09:13:55.548Z,2.85
2023-02-11T09:16:31.560Z,2.63
2023-02-11T09:18:59.060Z,2.40
2023-02-11T09:21:26.704Z,2.17
2023-02-11T09:23:53.603Z,2.97
2023-02-11T09:26:21.926Z,1.90
2023-02-11T09:28:51.663Z,2.42
2023-02-11T09:31:22.679Z,3.45
2023-02-11T09:33:50.589Z,2.67
2023-02-11T09:36:40.138Z,2.90
2023-02-11T09:39:12.348Z,4.70
2023-02-11T09:41:49.362Z,4.22
2023-02-11T09:44:26.998Z,3.80
2023-02-11T09:47:03.192Z,3.03
2023-02-11T09:49:36.209Z,3.00
2023-02-11T09:52:06.106Z,2.40
2023-02-11T09:54:52.269Z,2.58
2023-02-11T09:57:28.322Z,3.38
2023-02-11T09:59:56.623Z,2.28
2023-02-11T10:02:34.383Z,3.58
2023-02-11T10:05:27.777Z,3.67
2023-02-11T10:08:01.176Z,3.55
2023-02-11T10:10:45.739Z,2.97
2023-02-11T10:13:21.806Z,4.05
2023-02-11T10:16:06.727Z,5.07
2023-02-11T10:18:46.229Z,2.47
2023-02-11T10:21:25.525Z,2.42
2023-02-11T10:23:57.634Z,2.60
2023-02-11T10:26:27.827Z,4.93
2023-02-11T10:28:56.108Z,2.45
2023-02-11T10:31:25.972Z,2.58
2023-02-11T10:34:07.995Z,2.22
2023-02-11T10:36:36.240Z,1.80
2023-02-11T10:39:19.306Z,2.42
2023-02-11T10:41:57.196Z,3.00
2023-02-11T10:46:54.618Z,3.17
2023-02-11T10:49:35.534Z,5.30
2023-02-11T10:52:16.228Z,2.95
2023-02-11T10:54:55.670Z,1.95
2023-02-11T10:57:25.651Z,2.45
2023-02-11T10:59:57.035Z,5.10
2023-02-11T11:02:32.024Z,1.70
2023-02-11T11:05:00.947Z,3.42
2023-02-11T11:07:35.133Z,4.07
2023-02-11T11:10:07.446Z,2.50
2023-02-11T11:12:42.342Z,2.50
2023-02-11T11:15:24.657Z,6.15
2023-02-11T11:18:21.582Z,4.35
2023-02-11T11:21:02.397Z,3.10
2023-02-11T11:23:30.457Z,3.50
2023-02-11T11:26:08.564Z,3.30
2023-02-11T11:28:40.954Z,1.77
2023-02-11T11:31:16.006Z,4.15
2023-02-11T11:33:44.665Z,1.58
2023-02-11T11:36:15.439Z,1.73
2023-02-11T11:39:08.659Z,2.45
2023-02-11T11:41:37.748Z,4.47
2023-02-11T11:44:21.954Z,2.25
2023-02-11T11:46:53.770Z,4.10
2023-02-11T11:49:44.239Z,2.22
2023-02-11T11:52:31.401Z,2.65
2023-02-11T11:55:05.056Z,4.00
2023-02-11T11:57:35.293Z,3.63
2023-02-11T12:00:02.116Z,1.80
2023-02-11T12:02:41.228Z,4.65
2023-02-11T12:05:27.883Z,1.80
2023-02-11T12:08:10.058Z,3.35
2023-02-11T12:10:43.009Z,1.70
2023-02-11T12:13:24.028Z,6.00
2023-02-11T12:16:19.122Z,3.33
2023-02-11T12:18:52.088Z,2.03
2023-02-11T12:21:31.100Z,3.67
2023-02-11T12:24:18.991Z,2.25
2023-02-11T12:26:53.090Z,2.95
2023-02-11T12:29:46.389Z,3.97
2023-02-11T12:32:13.364Z,2.85
2023-02-11T12:35:00.446Z,2.88
2023-02-11T12:37:27.350Z,2.42
2023-02-11T12:40:03.189Z,2.22
2023-02-11T12:42:55.511Z,2.50
2023-02-11T12:45:34.130Z,2.67
2023-02-11T12:48:07.877Z,4.38
2023-02-11T12:50:53.494Z,3.63
2023-02-11T12:53:59.192Z,4.80
2023-02-11T12:56:59.305Z,4.05
2023-02-11T12:59:33.217Z,4.82
2023-02-11T13:02:01.394Z,3.75
2023-02-11T13:04:44.760Z,5.95
2023-02-11T13:07:16.985Z,3.20
2023-02-11T13:09:48.737Z,3.35
2023-02-11T13:12:34.506Z,4.28
2023-02-11T13:15:04.827Z,2.75
2023-02-11T13:17:44.270Z,4.88
2023-02-11T13:20:20.243Z,2.05
2023-02-11T13:22:54.007Z,2.80
2023-02-11T13:25:33.016Z,3.15
2023-02-11T13:27:59.957Z,3.78
2023-02-11T13:30:33.719Z,3.72
2023-02-11T13:33:03.529Z,3.92
2023-02-11T13:35:31.553Z,4.22
2023-02-11T13:37:59.492Z,3.25
2023-02-11T13:40:27.839Z,4.95
2023-02-11T13:42:56.332Z,5.70
2023-02-11T13:45:41.637Z,6.93
2023-02-11T13:48:17.042Z,10.05
2023-02-11T13:50:48.875Z,9.95
2023-02-11T13:53:16.238Z,6.00
2023-02-11T13:55:45.169Z,7.68
2023-02-11T13:58:12.117Z,6.40
2023-02-11T14:00:38.905Z,4.05
2023-02-11T14:03:30.613Z,3.95
2023-02-11T14:06:42.276Z,6.80
2023-02-11T14:09:29.107Z,5.00
2023-02-11T14:12:16.230Z,6.18
2023-02-11T14:15:21.844Z,5.05
2023-02-11T14:17:48.728Z,6.50
2023-02-11T14:20:34.284Z,3.20
2023-02-11T14:23:01.175Z,4.55
2023-02-11T14:25:28.197Z,4.15
2023-02-11T14:28:04.900Z,2.50
2023-02-11T14:30:48.395Z,5.45
2023-02-11T14:33:21.255Z,4.22
2023-02-11T14:35:58.461Z,4.50
2023-02-11T14:38:28.282Z,3.55
2023-02-11T14:41:10.456Z,4.40
2023-02-11T14:43:42.198Z,4.18
2023-02-11T14:46:09.785Z,3.97
2023-02-11T14:48:38.026Z,4.28
2023-02-11T14:51:07.585Z,5.50
2023-02-11T14:53:35.058Z,2.90
2023-02-11T14:56:01.991Z,3.53
2023-02-11T14:58:30.093Z,3.35
2023-02-11T15:00:58.819Z,5.15
2023-02-11T15:03:31.666Z,3.75
2023-02-11T15:06:18.860Z,5.70
2023-02-11T15:08:48.600Z,5.13
2023-02-11T15:11:17.212Z,5.03
2023-02-11T15:13:47.543Z,3.58
2023-02-11T15:16:18.592Z,2.78
2023-02-11T15:18:47.138Z,5.32
2023-02-11T15:21:20.032Z,3.88
2023-02-11T15:23:55.457Z,4.20
2023-02-11T15:26:22.562Z,3.97
2023-02-11T15:28:52.604Z,4.63
2023-02-11T15:31:23.895Z,3.50
2023-02-11T15:33:51.281Z,3.50
2023-02-11T15:36:19.525Z,3.53
2023-02-11T15:38:46.682Z,3.22
2023-02-11T15:41:32.344Z,4.25
2023-02-11T15:43:59.118Z,3.83
2023-02-11T15:46:31.387Z,2.65
2023-02-11T15:48:58.217Z,3.97
2023-02-11T15:51:31.324Z,4.88
2023-02-11T15:54:02.617Z,4.57
2023-02-11T15:56:33.058Z,5.00
2023-02-11T15:59:08.487Z,4.55
2023-02-11T16:01:37.361Z,4.65
2023-02-11T16:04:05.627Z,4.45
2023-02-11T16:06:36.629Z,4.57
2023-02-11T16:09:10.213Z,5.18
2023-02-11T16:11:53.770Z,2.30
2023-02-11T16:14:23.757Z,2.97
2023-02-11T16:16:52.030Z,2.95
2023-02-11T16:19:25.245Z,2.67
2023-02-11T16:21:53.541Z,3.50
2023-02-11T16:24:21.603Z,3.75
2023-02-11T16:26:53.498Z,4.28
2023-02-11T16:29:24.533Z,5.22
2023-02-11T16:31:52.557Z,2.55
2023-02-11T16:34:20.953Z,3.45
2023-02-11T16:36:48.282Z,5.80
2023-02-11T16:39:16.847Z,5.10
2023-02-11T16:41:44.000Z,4.82
2023-02-11T16:44:10.852Z,3.08
2023-02-11T16:46:37.806Z,3.47
2023-02-11T16:49:10.265Z,4.10
2023-02-11T16:51:41.526Z,5.35
2023-02-11T16:54:15.401Z,4.25
2023-02-11T16:56:42.708Z,3.63
2023-02-11T16:59:09.978Z,4.15
2023-02-11T17:01:38.410Z,4.32
2023-02-11T17:04:08.605Z,4.07
2023-02-11T17:06:35.518Z,3.35
2023-02-11T17:09:02.494Z,3.50
2023-02-11T17:11:31.642Z,2.95
2023-02-11T17:13:58.563Z,3.72
2023-02-11T17:16:26.390Z,3.00
2023-02-11T17:18:53.504Z,3.90
2023-02-11T17:21:20.376Z,3.13
2023-02-11T17:23:47.293Z,5.00
2023-02-11T17:26:14.209Z,4.20
2023-02-11T17:28:41.115Z,4.10
2023-02-11T17:31:11.541Z,5.55
2023-02-11T17:33:41.503Z,4.07
2023-02-11T17:36:09.150Z,4.07
2023-02-11T17:38:36.788Z,6.78
2023-02-11T17:41:04.859Z,6.28
2023-02-11T17:43:32.034Z,3.83
2023-02-11T17:45:58.919Z,4.53
2023-02-11T17:48:25.890Z,6.32
2023-02-11T17:50:52.957Z,5.68
2023-02-11T17:53:19.870Z,5.72
2023-02-11T17:55:46.722Z,5.45
2023-02-11T17:58:13.548Z,9.52
2023-02-11T18:00:40.630Z,10.10
2023-02-11T18:03:07.628Z,11.68
2023-02-11T18:05:35.648Z,5.72
2023-02-11T18:08:06.036Z,6.50
2023-02-11T18:10:33.602Z,10.32
2023-02-11T18:13:01.425Z,8.75
2023-02-11T18:15:31.165Z,13.77
2023-02-11T18:18:01.001Z,10.35
2023-02-11T18:20:27.888Z,11.13
2023-02-11T18:22:54.790Z,9.73
2023-02-11T18:25:21.835Z,9.93
2023-02-11T18:27:49.140Z,10.93
2023-02-11T18:30:19.577Z,10.73
2023-02-11T18:32:46.498Z,7.28
2023-02-11T18:35:15.228Z,9.02
2023-02-11T18:37:43.102Z,10.80
2023-02-11T18:40:10.774Z,8.85
2023-02-11T18:42:37.880Z,10.82
2023-02-11T18:45:07.178Z,8.13
2023-02-11T18:47:34.169Z,7.90
2023-02-11T18:50:01.173Z,7.80
2023-02-11T18:52:33.497Z,8.57
2023-02-11T18:55:00.297Z,13.05
2023-02-11T18:57:27.271Z,8.38
2023-02-11T18:59:54.208Z,10.07
2023-02-11T19:02:21.651Z,8.65
2023-02-11T19:04:48.577Z,10.10
2023-02-11T19:07:15.467Z,10.27
2023-02-11T19:09:42.686Z,8.63
2023-02-11T19:12:12.372Z,9.43
2023-02-11T19:14:42.098Z,9.95
2023-02-11T19:17:14.234Z,10.00
2023-02-11T19:19:48.800Z,10.23
2023-02-11T19:22:15.734Z,8.43
2023-02-11T19:24:44.730Z,8.30
2023-02-11T19:27:15.034Z,9.65
2023-02-11T19:29:41.946Z,18.30
2023-02-11T19:32:11.740Z,12.07
2023-02-11T19:34:43.771Z,13.32
2023-02-11T19:37:12.896Z,11.30
2023-02-11T19:39:42.488Z,14.80
2023-02-11T19:42:09.734Z,10.35
2023-02-11T19:44:36.906Z,11.88
2023-02-11T19:47:04.089Z,13.05
2023-02-11T19:49:33.047Z,10.25
2023-02-11T19:52:00.125Z,10.45
2023-02-11T19:54:29.092Z,10.10
2023-02-11T19:56:56.089Z,9.75
2023-02-11T19:59:28.998Z,10.13
2023-02-11T20:01:58.716Z,11.70
2023-02-11T20:04:25.524Z,11.38
2023-02-11T20:06:52.510Z,10.82
2023-02-11T20:09:22.387Z,7.97
2023-02-11T20:11:49.762Z,9.35
2023-02-11T20:14:17.006Z,11.65
2023-02-11T20:16:49.184Z,10.00
2023-02-11T20:19:21.154Z,18.95
2023-02-11T20:21:53.041Z,12.02
2023-02-11T20:24:23.223Z,12.50
2023-02-11T20:26:55.759Z,32.05
2023-02-11T20:29:23.707Z,17.85
2023-02-11T20:31:51.136Z,19.05
2023-02-11T20:34:21.230Z,16.90
2023-02-11T20:36:55.079Z,19.13
2023-02-11T20:39:25.518Z,17.75
2023-02-11T20:41:54.149Z,17.73
2023-02-11T20:44:26.841Z,18.13
2023-02-11T20:46:55.420Z,14.18
2023-02-11T20:49:26.536Z,16.42
2023-02-11T20:52:01.794Z,16.08
2023-02-11T20:54:31.329Z,15.07
2023-02-11T20:56:58.483Z,15.40
2023-02-11T20:59:25.930Z,15.63
2023-02-11T21:01:54.164Z,15.75
2023-02-11T21:04:22.509Z,15.18
2023-02-11T21:06:52.351Z,16.13
2023-02-11T21:09:20.382Z,14.77
2023-02-11T21:11:50.171Z,17.25
2023-02-11T21:14:20.884Z,14.15
2023-02-11T21:16:48.137Z,15.50
2023-02-11T21:19:15.110Z,12.25
2023-02-11T21:21:44.628Z,13.88
2023-02-11T21:24:11.580Z,13.57
2023-02-11T21:26:38.458Z,15.55
2023-02-11T21:29:06.534Z,11.40
2023-02-11T21:31:35.271Z,13.88
2023-02-11T21:34:02.698Z,13.23
2023-02-11T21:36:30.124Z,12.45
2023-02-11T21:38:57.373Z,12.95
2023-02-11T21:41:24.945Z,13.80
2023-02-11T21:43:52.163Z,11.38
2023-02-11T21:46:19.742Z,11.57
2023-02-11T21:48:46.758Z,12.55
2023-02-11T21:51:15.704Z,13.35
2023-02-11T21:53:42.520Z,12.35
2023-02-11T21:56:15.602Z,11.70
2023-02-11T21:58:45.176Z,11.50
2023-02-11T22:01:13.926Z,15.23
2023-02-11T22:03:41.183Z,13.65
2023-02-11T22:06:12.096Z,14.82
2023-02-11T22:08:39.420Z,13.50
2023-02-11T22:11:07.639Z,15.85
2023-02-11T22:13:34.974Z,13.70
2023-02-11T22:16:02.940Z,15.65
2023-02-11T22:18:32.356Z,15.32
2023-02-11T22:21:07.024Z,13.52
2023-02-11T22:23:34.036Z,16.50
2023-02-11T22:26:10.182Z,11.80
2023-02-11T22:28:39.034Z,12.75
2023-02-11T22:31:06.730Z,14.48
2023-02-11T22:33:33.956Z,14.05
2023-02-11T22:36:01.715Z,14.45
2023-02-11T22:38:29.457Z,13.93
2023-02-11T22:40:56.513Z,14.75
2023-02-11T22:43:25.685Z,15.82
2023-02-11T22:45:59.102Z,20.02
2023-02-11T22:48:26.340Z,14.52
2023-02-11T22:50:53.732Z,16.67
2023-02-11T22:53:23.467Z,16.77
2023-02-11T22:55:52.817Z,18.73
2023-02-11T22:58:20.263Z,15.65
2023-02-11T23:00:47.594Z,13.88
2023-02-11T23:03:15.671Z,16.55
2023-02-11T23:05:45.301Z,15.23
2023-02-11T23:08:12.965Z,15.40
2023-02-11T23:10:40.533Z,17.65
2023-02-11T23:13:08.059Z,14.57
2023-02-11T23:15:41.338Z,16.73
2023-02-11T23:18:11.214Z,14.30
2023-02-11T23:20:39.482Z,15.02
2023-02-11T23:23:06.935Z,14.35
2023-02-11T23:25:33.887Z,17.27
2023-02-11T23:28:01.225Z,15.10
2023-02-11T23:30:28.676Z,13.75
2023-02-11T23:32:55.603Z,15.55
2023-02-11T23:35:23.311Z,16.00
2023-02-11T23:37:50.603Z,16.02
2023-02-11T23:40:18.416Z,22.90
2023-02-11T23:42:45.808Z,18.20
2023-02-11T23:45:12.606Z,19.70
2023-02-11T23:47:40.124Z,17.60
2023-02-11T23:50:10.176Z,17.20
2023-02-11T23:52:37.296Z,18.08
2023-02-11T23:55:04.608Z,17.70
2023-02-11T23:57:32.604Z,17.92
